Terminal Aerodrome Forecast
Issued by NWS Wakefield, VA

Home | Current Version | Previous Version | Text Only | Print | Product List | Glossary On
Versions: 1 2 3 4 5 6 7 8 9 10 11 12 13 14 15 16 17 18
000
FTUS41 KAKQ 261400 AAA
TAFSBY
TAF AMD
KSBY 261433Z 2615/2712 01015G22KT 2SM RA BR OVC008
      TEMPO 2615/2618 3SM -RA BR OVC012
     FM262100 34013G18KT 4SM -RA BR OVC008
     FM270000 32012KT P6SM OVC015
     FM270400 32008KT P6SM OVC025=

USA.gov is the U.S. government's official web portal to all federal, state and local government web resources and services.